sensor_id;sensor_type;location;lat;lon;timestamp;P1;durP1;ratioP1;P2;durP2;ratioP2
55989;SDS011;41875;55.806;38.082;2023-05-29T00:00:00;6.57;;;2.40;;
55989;SDS011;41875;55.806;38.082;2023-05-29T00:02:36;6.53;;;2.65;;
55989;SDS011;41875;55.806;38.082;2023-05-29T00:05:05;9.18;;;2.83;;
55989;SDS011;41875;55.806;38.082;2023-05-29T00:07:34;6.47;;;2.78;;
55989;SDS011;41875;55.806;38.082;2023-05-29T00:10:02;6.40;;;2.55;;
55989;SDS011;41875;55.806;38.082;2023-05-29T00:12:33;7.93;;;2.70;;
55989;SDS011;41875;55.806;38.082;2023-05-29T00:15:03;7.85;;;2.50;;
55989;SDS011;41875;55.806;38.082;2023-05-29T00:17:32;7.95;;;2.92;;
55989;SDS011;41875;55.806;38.082;2023-05-29T00:20:01;7.30;;;2.72;;
55989;SDS011;41875;55.806;38.082;2023-05-29T00:22:36;5.47;;;2.80;;
55989;SDS011;41875;55.806;38.082;2023-05-29T00:25:05;6.70;;;2.53;;
55989;SDS011;41875;55.806;38.082;2023-05-29T00:27:36;9.90;;;2.67;;
55989;SDS011;41875;55.806;38.082;2023-05-29T00:30:05;6.22;;;2.42;;
55989;SDS011;41875;55.806;38.082;2023-05-29T00:32:35;6.85;;;2.38;;
55989;SDS011;41875;55.806;38.082;2023-05-29T00:35:04;7.47;;;2.78;;
55989;SDS011;41875;55.806;38.082;2023-05-29T00:37:33;5.45;;;2.45;;
55989;SDS011;41875;55.806;38.082;2023-05-29T00:45:00;6.60;;;2.60;;
55989;SDS011;41875;55.806;38.082;2023-05-29T00:47:31;8.27;;;2.53;;
55989;SDS011;41875;55.806;38.082;2023-05-29T00:50:00;6.75;;;2.80;;
55989;SDS011;41875;55.806;38.082;2023-05-29T00:52:30;8.35;;;3.00;;
55989;SDS011;41875;55.806;38.082;2023-05-29T00:55:00;7.35;;;2.90;;
55989;SDS011;41875;55.806;38.082;2023-05-29T00:57:31;10.73;;;3.00;;
55989;SDS011;41875;55.806;38.082;2023-05-29T01:00:03;7.20;;;2.67;;
55989;SDS011;41875;55.806;38.082;2023-05-29T01:02:35;7.32;;;2.50;;
55989;SDS011;41875;55.806;38.082;2023-05-29T01:05:05;5.75;;;2.45;;
55989;SDS011;41875;55.806;38.082;2023-05-29T01:07:36;6.75;;;2.80;;
55989;SDS011;41875;55.806;38.082;2023-05-29T01:10:06;6.85;;;2.50;;
55989;SDS011;41875;55.806;38.082;2023-05-29T01:12:38;8.35;;;2.55;;
55989;SDS011;41875;55.806;38.082;2023-05-29T01:15:17;5.63;;;2.47;;
55989;SDS011;41875;55.806;38.082;2023-05-29T01:20:52;7.00;;;2.38;;
55989;SDS011;41875;55.806;38.082;2023-05-29T01:30:33;8.45;;;3.00;;
55989;SDS011;41875;55.806;38.082;2023-05-29T01:33:03;4.95;;;2.53;;
55989;SDS011;41875;55.806;38.082;2023-05-29T01:35:32;7.45;;;3.00;;
55989;SDS011;41875;55.806;38.082;2023-05-29T01:38:00;11.75;;;3.13;;
55989;SDS011;41875;55.806;38.082;2023-05-29T01:40:29;7.07;;;2.55;;
55989;SDS011;41875;55.806;38.082;2023-05-29T01:45:26;8.80;;;2.83;;
55989;SDS011;41875;55.806;38.082;2023-05-29T01:47:57;7.57;;;2.80;;
55989;SDS011;41875;55.806;38.082;2023-05-29T01:50:26;7.03;;;3.22;;
55989;SDS011;41875;55.806;38.082;2023-05-29T01:52:56;11.30;;;3.10;;
55989;SDS011;41875;55.806;38.082;2023-05-29T01:55:25;10.38;;;2.88;;
55989;SDS011;41875;55.806;38.082;2023-05-29T01:57:54;7.85;;;2.60;;
55989;SDS011;41875;55.806;38.082;2023-05-29T02:00:24;10.82;;;2.95;;
55989;SDS011;41875;55.806;38.082;2023-05-29T02:02:53;8.93;;;2.92;;
55989;SDS011;41875;55.806;38.082;2023-05-29T02:05:23;8.75;;;2.95;;
55989;SDS011;41875;55.806;38.082;2023-05-29T02:07:52;8.65;;;2.88;;
55989;SDS011;41875;55.806;38.082;2023-05-29T02:10:20;5.90;;;2.70;;
55989;SDS011;41875;55.806;38.082;2023-05-29T02:12:49;7.70;;;2.88;;
55989;SDS011;41875;55.806;38.082;2023-05-29T02:15:18;7.50;;;2.83;;
55989;SDS011;41875;55.806;38.082;2023-05-29T02:17:48;8.55;;;2.60;;
55989;SDS011;41875;55.806;38.082;2023-05-29T02:20:17;9.27;;;2.80;;
55989;SDS011;41875;55.806;38.082;2023-05-29T02:22:47;6.93;;;2.60;;
55989;SDS011;41875;55.806;38.082;2023-05-29T02:25:16;6.47;;;2.72;;
55989;SDS011;41875;55.806;38.082;2023-05-29T02:27:44;8.60;;;2.63;;
55989;SDS011;41875;55.806;38.082;2023-05-29T02:30:13;8.40;;;2.85;;
55989;SDS011;41875;55.806;38.082;2023-05-29T02:32:42;7.15;;;2.70;;
55989;SDS011;41875;55.806;38.082;2023-05-29T02:35:11;9.85;;;2.72;;
55989;SDS011;41875;55.806;38.082;2023-05-29T02:37:41;8.80;;;2.92;;
55989;SDS011;41875;55.806;38.082;2023-05-29T02:40:17;9.52;;;2.67;;
55989;SDS011;41875;55.806;38.082;2023-05-29T02:42:49;6.47;;;2.60;;
55989;SDS011;41875;55.806;38.082;2023-05-29T02:45:18;6.13;;;2.53;;
55989;SDS011;41875;55.806;38.082;2023-05-29T02:47:48;7.70;;;2.67;;
55989;SDS011;41875;55.806;38.082;2023-05-29T02:50:17;10.30;;;3.15;;
55989;SDS011;41875;55.806;38.082;2023-05-29T02:55:16;7.30;;;2.10;;
55989;SDS011;41875;55.806;38.082;2023-05-29T02:57:46;9.73;;;3.00;;
55989;SDS011;41875;55.806;38.082;2023-05-29T03:00:19;6.57;;;2.30;;
55989;SDS011;41875;55.806;38.082;2023-05-29T03:07:45;8.65;;;2.63;;
55989;SDS011;41875;55.806;38.082;2023-05-29T03:10:14;7.88;;;2.58;;
55989;SDS011;41875;55.806;38.082;2023-05-29T03:12:45;5.32;;;2.22;;
55989;SDS011;41875;55.806;38.082;2023-05-29T03:15:14;6.53;;;2.20;;
55989;SDS011;41875;55.806;38.082;2023-05-29T03:20:15;9.30;;;2.22;;
55989;SDS011;41875;55.806;38.082;2023-05-29T03:22:44;5.70;;;2.20;;
55989;SDS011;41875;55.806;38.082;2023-05-29T03:25:13;5.65;;;2.17;;
55989;SDS011;41875;55.806;38.082;2023-05-29T03:27:44;7.47;;;2.10;;
55989;SDS011;41875;55.806;38.082;2023-05-29T03:30:17;6.47;;;2.15;;
55989;SDS011;41875;55.806;38.082;2023-05-29T03:32:51;5.63;;;1.90;;
55989;SDS011;41875;55.806;38.082;2023-05-29T03:35:30;8.40;;;1.83;;
55989;SDS011;41875;55.806;38.082;2023-05-29T03:37:59;8.38;;;2.25;;
55989;SDS011;41875;55.806;38.082;2023-05-29T03:40:28;8.00;;;2.25;;
55989;SDS011;41875;55.806;38.082;2023-05-29T03:42:58;6.75;;;2.00;;
55989;SDS011;41875;55.806;38.082;2023-05-29T03:45:27;4.80;;;1.95;;
55989;SDS011;41875;55.806;38.082;2023-05-29T03:50:24;4.65;;;1.83;;
55989;SDS011;41875;55.806;38.082;2023-05-29T03:52:53;4.63;;;1.77;;
55989;SDS011;41875;55.806;38.082;2023-05-29T03:55:22;7.10;;;1.60;;
55989;SDS011;41875;55.806;38.082;2023-05-29T03:57:51;3.83;;;1.85;;
55989;SDS011;41875;55.806;38.082;2023-05-29T04:00:21;5.65;;;2.25;;
55989;SDS011;41875;55.806;38.082;2023-05-29T04:02:51;10.40;;;2.38;;
55989;SDS011;41875;55.806;38.082;2023-05-29T04:05:20;4.93;;;1.80;;
55989;SDS011;41875;55.806;38.082;2023-05-29T04:10:30;8.18;;;1.80;;
55989;SDS011;41875;55.806;38.082;2023-05-29T04:13:00;4.35;;;1.88;;
55989;SDS011;41875;55.806;38.082;2023-05-29T04:15:30;6.70;;;1.90;;
55989;SDS011;41875;55.806;38.082;2023-05-29T04:18:00;5.22;;;1.42;;
55989;SDS011;41875;55.806;38.082;2023-05-29T04:20:28;3.97;;;2.13;;
55989;SDS011;41875;55.806;38.082;2023-05-29T04:22:58;5.75;;;1.65;;
55989;SDS011;41875;55.806;38.082;2023-05-29T04:25:27;5.13;;;2.15;;
55989;SDS011;41875;55.806;38.082;2023-05-29T04:27:56;6.07;;;2.47;;
55989;SDS011;41875;55.806;38.082;2023-05-29T04:30:29;6.30;;;2.10;;
55989;SDS011;41875;55.806;38.082;2023-05-29T04:33:01;4.53;;;1.90;;
55989;SDS011;41875;55.806;38.082;2023-05-29T04:35:32;7.22;;;1.60;;
55989;SDS011;41875;55.806;38.082;2023-05-29T04:38:05;5.32;;;1.70;;
55989;SDS011;41875;55.806;38.082;2023-05-29T04:40:35;6.20;;;1.75;;
55989;SDS011;41875;55.806;38.082;2023-05-29T04:45:51;4.82;;;1.67;;
55989;SDS011;41875;55.806;38.082;2023-05-29T04:48:22;5.40;;;1.60;;
55989;SDS011;41875;55.806;38.082;2023-05-29T04:50:54;7.22;;;1.92;;
55989;SDS011;41875;55.806;38.082;2023-05-29T04:53:24;4.43;;;1.48;;
55989;SDS011;41875;55.806;38.082;2023-05-29T04:55:53;3.95;;;1.80;;
55989;SDS011;41875;55.806;38.082;2023-05-29T04:58:25;7.50;;;1.80;;
55989;SDS011;41875;55.806;38.082;2023-05-29T05:00:55;3.47;;;1.77;;
55989;SDS011;41875;55.806;38.082;2023-05-29T05:03:30;5.28;;;1.55;;
55989;SDS011;41875;55.806;38.082;2023-05-29T05:06:02;3.53;;;1.40;;
55989;SDS011;41875;55.806;38.082;2023-05-29T05:08:33;4.97;;;1.52;;
55989;SDS011;41875;55.806;38.082;2023-05-29T05:11:03;5.28;;;2.20;;
55989;SDS011;41875;55.806;38.082;2023-05-29T05:13:34;3.60;;;1.35;;
55989;SDS011;41875;55.806;38.082;2023-05-29T05:16:04;4.68;;;1.55;;
55989;SDS011;41875;55.806;38.082;2023-05-29T05:18:35;6.20;;;1.98;;
55989;SDS011;41875;55.806;38.082;2023-05-29T05:21:06;3.22;;;1.70;;
55989;SDS011;41875;55.806;38.082;2023-05-29T05:23:35;4.75;;;1.83;;
55989;SDS011;41875;55.806;38.082;2023-05-29T05:26:10;3.58;;;1.33;;
55989;SDS011;41875;55.806;38.082;2023-05-29T05:31:08;3.33;;;1.10;;
55989;SDS011;41875;55.806;38.082;2023-05-29T05:33:38;3.28;;;1.50;;
55989;SDS011;41875;55.806;38.082;2023-05-29T05:36:09;4.68;;;1.50;;
55989;SDS011;41875;55.806;38.082;2023-05-29T05:38:39;3.47;;;1.20;;
55989;SDS011;41875;55.806;38.082;2023-05-29T05:43:39;4.63;;;1.30;;
55989;SDS011;41875;55.806;38.082;2023-05-29T05:46:21;2.67;;;1.02;;
55989;SDS011;41875;55.806;38.082;2023-05-29T05:48:53;2.97;;;1.40;;
55989;SDS011;41875;55.806;38.082;2023-05-29T05:51:24;3.13;;;1.00;;
55989;SDS011;41875;55.806;38.082;2023-05-29T05:53:53;2.90;;;1.17;;
55989;SDS011;41875;55.806;38.082;2023-05-29T05:56:25;4.55;;;1.25;;
55989;SDS011;41875;55.806;38.082;2023-05-29T05:58:54;1.85;;;0.65;;
55989;SDS011;41875;55.806;38.082;2023-05-29T06:01:24;1.73;;;0.73;;
55989;SDS011;41875;55.806;38.082;2023-05-29T06:03:53;6.85;;;1.60;;
55989;SDS011;41875;55.806;38.082;2023-05-29T06:06:22;4.60;;;1.17;;
55989;SDS011;41875;55.806;38.082;2023-05-29T06:11:21;3.15;;;1.05;;
55989;SDS011;41875;55.806;38.082;2023-05-29T06:13:50;3.00;;;0.90;;
55989;SDS011;41875;55.806;38.082;2023-05-29T06:16:24;2.30;;;1.00;;
55989;SDS011;41875;55.806;38.082;2023-05-29T06:18:56;3.20;;;1.10;;
55989;SDS011;41875;55.806;38.082;2023-05-29T06:21:26;3.10;;;0.80;;
55989;SDS011;41875;55.806;38.082;2023-05-29T06:23:56;4.45;;;1.20;;
55989;SDS011;41875;55.806;38.082;2023-05-29T06:26:26;2.72;;;0.98;;
55989;SDS011;41875;55.806;38.082;2023-05-29T06:28:56;2.17;;;0.80;;
55989;SDS011;41875;55.806;38.082;2023-05-29T06:31:26;2.15;;;1.00;;
55989;SDS011;41875;55.806;38.082;2023-05-29T06:33:55;2.92;;;1.00;;
55989;SDS011;41875;55.806;38.082;2023-05-29T06:36:24;1.67;;;0.80;;
55989;SDS011;41875;55.806;38.082;2023-05-29T06:38:53;3.13;;;1.17;;
55989;SDS011;41875;55.806;38.082;2023-05-29T06:41:21;2.10;;;0.85;;
55989;SDS011;41875;55.806;38.082;2023-05-29T06:43:50;2.28;;;0.90;;
55989;SDS011;41875;55.806;38.082;2023-05-29T06:46:21;2.65;;;0.80;;
55989;SDS011;41875;55.806;38.082;2023-05-29T06:48:51;2.00;;;0.95;;
55989;SDS011;41875;55.806;38.082;2023-05-29T06:51:22;4.35;;;1.20;;
55989;SDS011;41875;55.806;38.082;2023-05-29T06:53:54;1.77;;;0.82;;
55989;SDS011;41875;55.806;38.082;2023-05-29T06:56:26;1.52;;;0.77;;
55989;SDS011;41875;55.806;38.082;2023-05-29T06:58:57;1.63;;;0.75;;
55989;SDS011;41875;55.806;38.082;2023-05-29T07:04:29;1.17;;;0.75;;
55989;SDS011;41875;55.806;38.082;2023-05-29T07:06:58;2.80;;;0.93;;
55989;SDS011;41875;55.806;38.082;2023-05-29T07:11:55;2.78;;;0.90;;
55989;SDS011;41875;55.806;38.082;2023-05-29T07:14:23;2.72;;;0.77;;
55989;SDS011;41875;55.806;38.082;2023-05-29T07:16:52;2.67;;;1.20;;
55989;SDS011;41875;55.806;38.082;2023-05-29T07:19:21;4.13;;;1.00;;
55989;SDS011;41875;55.806;38.082;2023-05-29T07:21:52;2.28;;;1.02;;
55989;SDS011;41875;55.806;38.082;2023-05-29T07:24:22;4.93;;;0.93;;
55989;SDS011;41875;55.806;38.082;2023-05-29T07:31:50;4.40;;;1.00;;
55989;SDS011;41875;55.806;38.082;2023-05-29T07:34:20;3.20;;;0.82;;
55989;SDS011;41875;55.806;38.082;2023-05-29T07:39:28;3.50;;;1.10;;
55989;SDS011;41875;55.806;38.082;2023-05-29T07:42:00;2.10;;;0.93;;
55989;SDS011;41875;55.806;38.082;2023-05-29T07:44:29;4.32;;;1.40;;
55989;SDS011;41875;55.806;38.082;2023-05-29T07:46:58;3.00;;;1.00;;
55989;SDS011;41875;55.806;38.082;2023-05-29T07:49:35;6.18;;;1.10;;
55989;SDS011;41875;55.806;38.082;2023-05-29T07:52:07;6.20;;;1.15;;
55989;SDS011;41875;55.806;38.082;2023-05-29T07:54:36;3.42;;;1.20;;
55989;SDS011;41875;55.806;38.082;2023-05-29T07:57:07;5.03;;;1.33;;
55989;SDS011;41875;55.806;38.082;2023-05-29T07:59:40;4.72;;;1.15;;
55989;SDS011;41875;55.806;38.082;2023-05-29T08:02:10;6.70;;;1.10;;
55989;SDS011;41875;55.806;38.082;2023-05-29T08:04:53;4.20;;;1.33;;
55989;SDS011;41875;55.806;38.082;2023-05-29T08:07:24;4.28;;;0.90;;
55989;SDS011;41875;55.806;38.082;2023-05-29T08:09:53;2.67;;;1.00;;
55989;SDS011;41875;55.806;38.082;2023-05-29T08:12:22;4.85;;;1.27;;
55989;SDS011;41875;55.806;38.082;2023-05-29T08:14:54;3.28;;;1.20;;
55989;SDS011;41875;55.806;38.082;2023-05-29T08:19:51;4.70;;;1.33;;
55989;SDS011;41875;55.806;38.082;2023-05-29T08:24:50;2.42;;;1.17;;
55989;SDS011;41875;55.806;38.082;2023-05-29T08:27:19;5.70;;;1.10;;
55989;SDS011;41875;55.806;38.082;2023-05-29T08:32:17;2.83;;;1.10;;
55989;SDS011;41875;55.806;38.082;2023-05-29T08:34:46;3.72;;;1.10;;
55989;SDS011;41875;55.806;38.082;2023-05-29T08:37:15;3.17;;;1.30;;
55989;SDS011;41875;55.806;38.082;2023-05-29T08:39:44;5.20;;;1.30;;
55989;SDS011;41875;55.806;38.082;2023-05-29T08:42:16;7.75;;;1.42;;
55989;SDS011;41875;55.806;38.082;2023-05-29T08:44:49;4.65;;;1.40;;
55989;SDS011;41875;55.806;38.082;2023-05-29T08:47:24;4.95;;;1.33;;
55989;SDS011;41875;55.806;38.082;2023-05-29T08:49:55;4.45;;;1.50;;
55989;SDS011;41875;55.806;38.082;2023-05-29T08:52:26;2.40;;;1.17;;
55989;SDS011;41875;55.806;38.082;2023-05-29T08:54:58;5.07;;;1.40;;
55989;SDS011;41875;55.806;38.082;2023-05-29T08:57:31;2.95;;;1.08;;
55989;SDS011;41875;55.806;38.082;2023-05-29T09:00:01;5.32;;;1.40;;
55989;SDS011;41875;55.806;38.082;2023-05-29T09:02:39;3.80;;;1.40;;
55989;SDS011;41875;55.806;38.082;2023-05-29T09:07:36;4.07;;;1.15;;
55989;SDS011;41875;55.806;38.082;2023-05-29T09:10:06;6.07;;;1.40;;
55989;SDS011;41875;55.806;38.082;2023-05-29T09:12:38;2.40;;;1.30;;
55989;SDS011;41875;55.806;38.082;2023-05-29T09:15:18;8.65;;;1.40;;
55989;SDS011;41875;55.806;38.082;2023-05-29T09:17:51;3.90;;;1.50;;
55989;SDS011;41875;55.806;38.082;2023-05-29T09:20:21;4.68;;;1.65;;
55989;SDS011;41875;55.806;38.082;2023-05-29T09:22:55;4.97;;;1.33;;
55989;SDS011;41875;55.806;38.082;2023-05-29T09:25:26;4.03;;;1.23;;
55989;SDS011;41875;55.806;38.082;2023-05-29T09:27:58;4.63;;;1.52;;
55989;SDS011;41875;55.806;38.082;2023-05-29T09:34:05;8.50;;;1.65;;
55989;SDS011;41875;55.806;38.082;2023-05-29T09:36:34;4.25;;;1.40;;
55989;SDS011;41875;55.806;38.082;2023-05-29T09:41:43;4.55;;;1.25;;
55989;SDS011;41875;55.806;38.082;2023-05-29T09:44:13;5.40;;;1.50;;
55989;SDS011;41875;55.806;38.082;2023-05-29T09:46:42;6.03;;;1.60;;
55989;SDS011;41875;55.806;38.082;2023-05-29T09:49:13;9.55;;;1.65;;
55989;SDS011;41875;55.806;38.082;2023-05-29T09:51:44;7.15;;;1.77;;
55989;SDS011;41875;55.806;38.082;2023-05-29T09:54:15;4.28;;;1.80;;
55989;SDS011;41875;55.806;38.082;2023-05-29T09:56:44;5.93;;;1.50;;
55989;SDS011;41875;55.806;38.082;2023-05-29T09:59:17;3.50;;;1.30;;
55989;SDS011;41875;55.806;38.082;2023-05-29T10:01:48;7.18;;;1.45;;
55989;SDS011;41875;55.806;38.082;2023-05-29T10:04:17;11.32;;;1.30;;
55989;SDS011;41875;55.806;38.082;2023-05-29T10:06:47;4.18;;;1.48;;
55989;SDS011;41875;55.806;38.082;2023-05-29T10:09:17;6.95;;;1.50;;
55989;SDS011;41875;55.806;38.082;2023-05-29T10:11:49;4.43;;;1.70;;
55989;SDS011;41875;55.806;38.082;2023-05-29T10:14:21;7.60;;;1.67;;
55989;SDS011;41875;55.806;38.082;2023-05-29T10:16:52;3.78;;;1.30;;
55989;SDS011;41875;55.806;38.082;2023-05-29T10:19:24;5.72;;;1.67;;
55989;SDS011;41875;55.806;38.082;2023-05-29T10:21:54;5.78;;;1.80;;
55989;SDS011;41875;55.806;38.082;2023-05-29T10:24:24;3.40;;;1.50;;
55989;SDS011;41875;55.806;38.082;2023-05-29T10:26:55;3.92;;;1.38;;
55989;SDS011;41875;55.806;38.082;2023-05-29T10:29:26;7.00;;;1.50;;
55989;SDS011;41875;55.806;38.082;2023-05-29T10:32:03;3.83;;;1.60;;
55989;SDS011;41875;55.806;38.082;2023-05-29T10:34:38;6.13;;;1.40;;
55989;SDS011;41875;55.806;38.082;2023-05-29T10:37:15;7.35;;;1.40;;
55989;SDS011;41875;55.806;38.082;2023-05-29T10:39:53;5.40;;;1.55;;
55989;SDS011;41875;55.806;38.082;2023-05-29T10:42:42;5.25;;;1.63;;
55989;SDS011;41875;55.806;38.082;2023-05-29T10:48:39;3.55;;;1.27;;
55989;SDS011;41875;55.806;38.082;2023-05-29T10:51:23;5.22;;;1.73;;
55989;SDS011;41875;55.806;38.082;2023-05-29T10:53:54;4.47;;;1.33;;
55989;SDS011;41875;55.806;38.082;2023-05-29T10:56:23;4.75;;;1.25;;
55989;SDS011;41875;55.806;38.082;2023-05-29T10:58:58;4.90;;;1.45;;
55989;SDS011;41875;55.806;38.082;2023-05-29T11:01:30;7.40;;;1.67;;
55989;SDS011;41875;55.806;38.082;2023-05-29T11:06:58;2.58;;;1.30;;
55989;SDS011;41875;55.806;38.082;2023-05-29T11:09:33;5.72;;;1.40;;
55989;SDS011;41875;55.806;38.082;2023-05-29T11:12:13;6.97;;;1.70;;
55989;SDS011;41875;55.806;38.082;2023-05-29T11:14:54;4.13;;;1.40;;
55989;SDS011;41875;55.806;38.082;2023-05-29T11:17:30;4.05;;;1.70;;
55989;SDS011;41875;55.806;38.082;2023-05-29T11:23:04;5.28;;;1.60;;
55989;SDS011;41875;55.806;38.082;2023-05-29T11:25:35;8.45;;;1.60;;
55989;SDS011;41875;55.806;38.082;2023-05-29T11:28:04;4.15;;;1.45;;
55989;SDS011;41875;55.806;38.082;2023-05-29T11:30:40;4.43;;;1.60;;
55989;SDS011;41875;55.806;38.082;2023-05-29T11:33:14;8.98;;;1.60;;
55989;SDS011;41875;55.806;38.082;2023-05-29T11:35:54;4.28;;;1.50;;
55989;SDS011;41875;55.806;38.082;2023-05-29T11:38:25;5.82;;;1.40;;
55989;SDS011;41875;55.806;38.082;2023-05-29T11:40:54;5.05;;;1.50;;
55989;SDS011;41875;55.806;38.082;2023-05-29T11:43:23;6.63;;;1.73;;
55989;SDS011;41875;55.806;38.082;2023-05-29T11:45:53;4.57;;;1.70;;
55989;SDS011;41875;55.806;38.082;2023-05-29T11:48:23;6.97;;;1.70;;
55989;SDS011;41875;55.806;38.082;2023-05-29T11:50:52;2.55;;;1.40;;
55989;SDS011;41875;55.806;38.082;2023-05-29T11:55:49;6.82;;;1.80;;
55989;SDS011;41875;55.806;38.082;2023-05-29T11:58:18;5.05;;;1.58;;
55989;SDS011;41875;55.806;38.082;2023-05-29T12:00:48;12.57;;;2.92;;
55989;SDS011;41875;55.806;38.082;2023-05-29T12:03:18;12.85;;;2.08;;
55989;SDS011;41875;55.806;38.082;2023-05-29T12:05:49;6.85;;;1.80;;
55989;SDS011;41875;55.806;38.082;2023-05-29T12:08:22;4.85;;;1.70;;
55989;SDS011;41875;55.806;38.082;2023-05-29T12:10:52;3.10;;;1.42;;
55989;SDS011;41875;55.806;38.082;2023-05-29T12:13:21;4.38;;;1.20;;
55989;SDS011;41875;55.806;38.082;2023-05-29T12:15:52;7.75;;;1.70;;
55989;SDS011;41875;55.806;38.082;2023-05-29T12:18:23;3.67;;;1.48;;
55989;SDS011;41875;55.806;38.082;2023-05-29T12:23:27;5.30;;;1.70;;
55989;SDS011;41875;55.806;38.082;2023-05-29T12:25:57;2.63;;;1.27;;
55989;SDS011;41875;55.806;38.082;2023-05-29T12:28:26;5.10;;;1.70;;
55989;SDS011;41875;55.806;38.082;2023-05-29T12:30:58;4.32;;;1.30;;
55989;SDS011;41875;55.806;38.082;2023-05-29T12:33:33;6.30;;;1.60;;
55989;SDS011;41875;55.806;38.082;2023-05-29T12:36:34;8.43;;;1.48;;
55989;SDS011;41875;55.806;38.082;2023-05-29T12:39:05;6.78;;;1.70;;
55989;SDS011;41875;55.806;38.082;2023-05-29T12:41:37;4.35;;;1.20;;
55989;SDS011;41875;55.806;38.082;2023-05-29T12:44:07;5.53;;;1.40;;
55989;SDS011;41875;55.806;38.082;2023-05-29T12:46:36;5.22;;;1.60;;
55989;SDS011;41875;55.806;38.082;2023-05-29T12:49:13;3.47;;;1.60;;
55989;SDS011;41875;55.806;38.082;2023-05-29T12:51:43;5.55;;;1.83;;
55989;SDS011;41875;55.806;38.082;2023-05-29T12:54:13;4.32;;;1.50;;
55989;SDS011;41875;55.806;38.082;2023-05-29T12:56:43;5.90;;;1.65;;
55989;SDS011;41875;55.806;38.082;2023-05-29T12:59:13;5.60;;;1.50;;
55989;SDS011;41875;55.806;38.082;2023-05-29T13:01:42;4.95;;;1.80;;
55989;SDS011;41875;55.806;38.082;2023-05-29T13:04:11;5.15;;;1.98;;
55989;SDS011;41875;55.806;38.082;2023-05-29T13:06:40;2.55;;;1.50;;
55989;SDS011;41875;55.806;38.082;2023-05-29T13:09:10;6.13;;;1.60;;
55989;SDS011;41875;55.806;38.082;2023-05-29T13:11:38;4.40;;;1.80;;
55989;SDS011;41875;55.806;38.082;2023-05-29T13:16:35;10.05;;;1.98;;
55989;SDS011;41875;55.806;38.082;2023-05-29T13:26:32;6.38;;;1.63;;
55989;SDS011;41875;55.806;38.082;2023-05-29T13:29:01;3.13;;;1.58;;
55989;SDS011;41875;55.806;38.082;2023-05-29T13:31:29;3.58;;;1.75;;
55989;SDS011;41875;55.806;38.082;2023-05-29T13:33:58;6.25;;;1.95;;
55989;SDS011;41875;55.806;38.082;2023-05-29T13:36:26;3.05;;;1.38;;
55989;SDS011;41875;55.806;38.082;2023-05-29T13:38:55;4.15;;;1.40;;
55989;SDS011;41875;55.806;38.082;2023-05-29T13:41:23;5.03;;;1.58;;
55989;SDS011;41875;55.806;38.082;2023-05-29T13:43:54;6.28;;;1.80;;
55989;SDS011;41875;55.806;38.082;2023-05-29T13:46:22;5.40;;;1.27;;
55989;SDS011;41875;55.806;38.082;2023-05-29T13:48:51;6.00;;;1.70;;
55989;SDS011;41875;55.806;38.082;2023-05-29T13:51:21;3.90;;;1.42;;
55989;SDS011;41875;55.806;38.082;2023-05-29T13:53:50;4.43;;;1.30;;
55989;SDS011;41875;55.806;38.082;2023-05-29T13:56:18;5.13;;;1.65;;
55989;SDS011;41875;55.806;38.082;2023-05-29T13:58:47;5.47;;;1.88;;
55989;SDS011;41875;55.806;38.082;2023-05-29T14:01:17;4.55;;;1.80;;
55989;SDS011;41875;55.806;38.082;2023-05-29T14:03:46;5.68;;;1.63;;
55989;SDS011;41875;55.806;38.082;2023-05-29T14:06:15;7.47;;;1.75;;
55989;SDS011;41875;55.806;38.082;2023-05-29T14:08:43;6.05;;;1.60;;
55989;SDS011;41875;55.806;38.082;2023-05-29T14:11:12;7.10;;;1.63;;
55989;SDS011;41875;55.806;38.082;2023-05-29T14:16:09;6.32;;;1.90;;
55989;SDS011;41875;55.806;38.082;2023-05-29T14:18:39;4.63;;;1.60;;
55989;SDS011;41875;55.806;38.082;2023-05-29T14:21:08;6.90;;;1.70;;
55989;SDS011;41875;55.806;38.082;2023-05-29T14:23:37;5.65;;;1.50;;
55989;SDS011;41875;55.806;38.082;2023-05-29T14:26:06;4.25;;;1.40;;
55989;SDS011;41875;55.806;38.082;2023-05-29T14:28:34;5.38;;;1.70;;
55989;SDS011;41875;55.806;38.082;2023-05-29T14:31:04;4.35;;;1.92;;
55989;SDS011;41875;55.806;38.082;2023-05-29T14:33:32;4.97;;;1.88;;
55989;SDS011;41875;55.806;38.082;2023-05-29T14:36:05;5.68;;;1.90;;
55989;SDS011;41875;55.806;38.082;2023-05-29T14:38:33;4.75;;;1.65;;
55989;SDS011;41875;55.806;38.082;2023-05-29T14:41:03;4.82;;;1.85;;
55989;SDS011;41875;55.806;38.082;2023-05-29T14:43:35;5.72;;;1.58;;
55989;SDS011;41875;55.806;38.082;2023-05-29T14:46:05;6.70;;;1.88;;
55989;SDS011;41875;55.806;38.082;2023-05-29T14:48:34;5.60;;;1.88;;
55989;SDS011;41875;55.806;38.082;2023-05-29T14:51:04;5.47;;;2.10;;
55989;SDS011;41875;55.806;38.082;2023-05-29T14:53:35;4.78;;;1.42;;
55989;SDS011;41875;55.806;38.082;2023-05-29T14:56:05;4.40;;;1.50;;
55989;SDS011;41875;55.806;38.082;2023-05-29T15:01:02;6.40;;;1.92;;
55989;SDS011;41875;55.806;38.082;2023-05-29T15:03:30;4.40;;;1.92;;
55989;SDS011;41875;55.806;38.082;2023-05-29T15:05:59;9.57;;;2.10;;
55989;SDS011;41875;55.806;38.082;2023-05-29T15:08:29;5.22;;;1.50;;
55989;SDS011;41875;55.806;38.082;2023-05-29T15:11:01;5.20;;;1.42;;
55989;SDS011;41875;55.806;38.082;2023-05-29T15:13:30;8.68;;;1.73;;
55989;SDS011;41875;55.806;38.082;2023-05-29T15:18:30;5.65;;;1.52;;
55989;SDS011;41875;55.806;38.082;2023-05-29T15:20:59;4.47;;;1.75;;
55989;SDS011;41875;55.806;38.082;2023-05-29T15:25:57;4.63;;;1.63;;
55989;SDS011;41875;55.806;38.082;2023-05-29T15:28:27;6.38;;;1.83;;
55989;SDS011;41875;55.806;38.082;2023-05-29T15:30:56;6.55;;;2.15;;
55989;SDS011;41875;55.806;38.082;2023-05-29T15:33:25;3.55;;;1.70;;
55989;SDS011;41875;55.806;38.082;2023-05-29T15:35:57;5.65;;;1.63;;
55989;SDS011;41875;55.806;38.082;2023-05-29T15:38:25;5.10;;;1.83;;
55989;SDS011;41875;55.806;38.082;2023-05-29T15:40:56;7.38;;;2.20;;
55989;SDS011;41875;55.806;38.082;2023-05-29T15:43:25;5.93;;;1.52;;
55989;SDS011;41875;55.806;38.082;2023-05-29T15:45:54;8.13;;;1.88;;
55989;SDS011;41875;55.806;38.082;2023-05-29T15:48:23;4.90;;;1.60;;
55989;SDS011;41875;55.806;38.082;2023-05-29T15:50:51;4.07;;;1.50;;
55989;SDS011;41875;55.806;38.082;2023-05-29T15:53:20;5.13;;;1.58;;
55989;SDS011;41875;55.806;38.082;2023-05-29T15:55:48;4.03;;;1.63;;
55989;SDS011;41875;55.806;38.082;2023-05-29T15:58:18;4.00;;;1.40;;
55989;SDS011;41875;55.806;38.082;2023-05-29T16:00:48;6.93;;;1.70;;
55989;SDS011;41875;55.806;38.082;2023-05-29T16:03:17;9.23;;;1.95;;
55989;SDS011;41875;55.806;38.082;2023-05-29T16:05:45;7.45;;;1.65;;
55989;SDS011;41875;55.806;38.082;2023-05-29T16:08:14;7.95;;;1.90;;
55989;SDS011;41875;55.806;38.082;2023-05-29T16:10:42;13.25;;;2.20;;
55989;SDS011;41875;55.806;38.082;2023-05-29T16:13:11;5.47;;;1.50;;
55989;SDS011;41875;55.806;38.082;2023-05-29T16:15:41;3.45;;;1.35;;
55989;SDS011;41875;55.806;38.082;2023-05-29T16:18:12;8.25;;;1.75;;
55989;SDS011;41875;55.806;38.082;2023-05-29T16:20:41;9.93;;;4.57;;
55989;SDS011;41875;55.806;38.082;2023-05-29T16:23:10;5.97;;;2.35;;
55989;SDS011;41875;55.806;38.082;2023-05-29T16:25:38;8.68;;;2.60;;
55989;SDS011;41875;55.806;38.082;2023-05-29T16:28:07;6.20;;;1.80;;
55989;SDS011;41875;55.806;38.082;2023-05-29T16:30:37;5.03;;;1.88;;
55989;SDS011;41875;55.806;38.082;2023-05-29T16:33:07;5.70;;;2.00;;
55989;SDS011;41875;55.806;38.082;2023-05-29T16:35:36;5.65;;;1.92;;
55989;SDS011;41875;55.806;38.082;2023-05-29T16:38:04;6.15;;;2.63;;